Strona główna
METAR-TAF:

METAR-TAF

Lotnisko :

Port lotniczy Pekanbaru

Pekanbaru, Indonezja

Szerokość geograficzna: 00-28N, Długość geograficzna: 101-27E, wysokość: 31 m

Aktualna obserwacja pogody

Raport powstał 4 godziny i 18 minut temu, godzina 22:30 UTC
Cisza
Temperatura 25°C
Wilgotność 94%
Ciśnienie 1008 hPa
Widzialność: 7000 m
Rozproszone chmury na wysokości 1200 ft

METAR: WIBB 032230Z 00000KT 7000 SCT012 25/24 Q1008

czas: 09:48 (02:48 UTC)


TAF: brakujący

Obserwacja i prognoza pogody dla ponad 4000 lotnisk (raport METAR i TAF).

Dostępne stacje oznaczono żółtymi i czerwonymi punktami na mapie.

Najedź kursorem aby zobaczyć nazwę stacji.

Kliknij aby zobaczyć obserwacje i prognozy pogody.

Aby zmienić mapę: kliknij na zielony przycisk z czarnym krzyżykiem, aby powiększyć; na zielony przycisk z myślnikiem, aby pomniejszyć; na zielone strzałki, aby przejść do map sąsiednich.


METAR-TAF: